Saint-Jerome, Canada
Current Conditions -  °F | °C
As of 10:00 PM on Friday 28 Nov 2014 (Local Time) from CYMX Reporting Station
Scattered Clouds Scattered Clouds  
Wind Chill: 18°   Ceiling: Unl
Heat Index: 18°   Visibility: 25mi
Dew Point:   Wind: 2mph
Humidity: 68%   Direction: 230°SW
Pressure: 30.19"   Gusts: NA
Location:  45.77°N, 74°W
Report Text: CYMX 290300Z 23002KT 25SM SCT130 M08/M13 A3019 RMK AC4 SLP228
Loading
Personal Weather Stations






























Interactive Weather Map New forecast layout! Learn more

10-Day Weather Forecast

Advertisements
Track Severe Weather on mobile